sensor_id;sensor_type;location;lat;lon;timestamp;temperature;humidity
50947;DHT22;36955;47.416;7.716;2022-07-30T00:01:43;19.40;99.90
50947;DHT22;36955;47.416;7.716;2022-07-30T00:04:09;19.40;99.90
50947;DHT22;36955;47.416;7.716;2022-07-30T00:06:35;19.30;99.90
50947;DHT22;36955;47.416;7.716;2022-07-30T00:09:01;19.30;99.90
50947;DHT22;36955;47.416;7.716;2022-07-30T00:11:27;19.30;99.90
50947;DHT22;36955;47.416;7.716;2022-07-30T00:13:53;19.30;99.90
50947;DHT22;36955;47.416;7.716;2022-07-30T00:16:19;19.20;99.90
50947;DHT22;36955;47.416;7.716;2022-07-30T00:18:45;19.20;99.90
50947;DHT22;36955;47.416;7.716;2022-07-30T00:21:11;19.10;99.90
50947;DHT22;36955;47.416;7.716;2022-07-30T00:23:37;19.20;99.90
50947;DHT22;36955;47.416;7.716;2022-07-30T00:26:03;19.10;99.90
50947;DHT22;36955;47.416;7.716;2022-07-30T00:28:29;19.10;99.90
50947;DHT22;36955;47.416;7.716;2022-07-30T00:30:55;19.00;99.90
50947;DHT22;36955;47.416;7.716;2022-07-30T00:33:21;18.90;99.90
50947;DHT22;36955;47.416;7.716;2022-07-30T00:35:47;18.80;99.90
50947;DHT22;36955;47.416;7.716;2022-07-30T00:38:13;18.80;99.90
50947;DHT22;36955;47.416;7.716;2022-07-30T00:40:40;18.70;99.90
50947;DHT22;36955;47.416;7.716;2022-07-30T00:43:06;18.70;99.90
50947;DHT22;36955;47.416;7.716;2022-07-30T00:45:32;18.60;99.90
50947;DHT22;36955;47.416;7.716;2022-07-30T00:47:58;18.60;99.90
50947;DHT22;36955;47.416;7.716;2022-07-30T00:50:24;18.60;99.90
50947;DHT22;36955;47.416;7.716;2022-07-30T00:52:50;18.50;99.90
50947;DHT22;36955;47.416;7.716;2022-07-30T00:55:16;18.50;99.90
50947;DHT22;36955;47.416;7.716;2022-07-30T00:57:43;18.50;99.90
50947;DHT22;36955;47.416;7.716;2022-07-30T01:00:12;18.50;99.90
50947;DHT22;36955;47.416;7.716;2022-07-30T01:02:39;18.50;99.90
50947;DHT22;36955;47.416;7.716;2022-07-30T01:05:06;18.40;99.90
50947;DHT22;36955;47.416;7.716;2022-07-30T01:07:32;18.40;99.90
50947;DHT22;36955;47.416;7.716;2022-07-30T01:09:58;18.40;99.90
50947;DHT22;36955;47.416;7.716;2022-07-30T01:12:25;18.40;99.90
50947;DHT22;36955;47.416;7.716;2022-07-30T01:14:54;18.40;99.90
50947;DHT22;36955;47.416;7.716;2022-07-30T01:17:20;18.50;99.90
50947;DHT22;36955;47.416;7.716;2022-07-30T01:19:47;18.50;99.90
50947;DHT22;36955;47.416;7.716;2022-07-30T01:27:36;18.20;99.90
50947;DHT22;36955;47.416;7.716;2022-07-30T01:30:05;18.20;99.90
50947;DHT22;36955;47.416;7.716;2022-07-30T01:32:34;18.10;99.90
50947;DHT22;36955;47.416;7.716;2022-07-30T01:35:02;18.20;99.90
50947;DHT22;36955;47.416;7.716;2022-07-30T01:37:31;18.20;99.90
50947;DHT22;36955;47.416;7.716;2022-07-30T01:39:58;18.20;99.90
50947;DHT22;36955;47.416;7.716;2022-07-30T01:42:26;18.30;99.90
50947;DHT22;36955;47.416;7.716;2022-07-30T01:44:53;18.30;99.90
50947;DHT22;36955;47.416;7.716;2022-07-30T01:47:21;18.40;99.90
50947;DHT22;36955;47.416;7.716;2022-07-30T01:49:49;18.40;99.90
50947;DHT22;36955;47.416;7.716;2022-07-30T01:52:17;18.40;99.90
50947;DHT22;36955;47.416;7.716;2022-07-30T01:54:44;18.40;99.90
50947;DHT22;36955;47.416;7.716;2022-07-30T01:57:13;18.40;99.90
50947;DHT22;36955;47.416;7.716;2022-07-30T01:59:42;18.40;99.90
50947;DHT22;36955;47.416;7.716;2022-07-30T02:02:10;18.40;99.90
50947;DHT22;36955;47.416;7.716;2022-07-30T02:04:36;18.30;99.90
50947;DHT22;36955;47.416;7.716;2022-07-30T02:07:05;18.30;99.90
50947;DHT22;36955;47.416;7.716;2022-07-30T02:09:47;18.30;99.90
50947;DHT22;36955;47.416;7.716;2022-07-30T02:12:18;18.30;99.90
50947;DHT22;36955;47.416;7.716;2022-07-30T02:14:59;18.30;99.90
50947;DHT22;36955;47.416;7.716;2022-07-30T02:17:48;18.40;99.90
50947;DHT22;36955;47.416;7.716;2022-07-30T02:20:16;18.50;99.90
50947;DHT22;36955;47.416;7.716;2022-07-30T02:22:45;18.50;99.90
50947;DHT22;36955;47.416;7.716;2022-07-30T02:25:16;18.50;99.90
50947;DHT22;36955;47.416;7.716;2022-07-30T02:27:47;18.40;99.90
50947;DHT22;36955;47.416;7.716;2022-07-30T02:30:15;18.40;99.90
50947;DHT22;36955;47.416;7.716;2022-07-30T02:32:43;18.40;99.90
50947;DHT22;36955;47.416;7.716;2022-07-30T02:35:18;18.40;99.90
50947;DHT22;36955;47.416;7.716;2022-07-30T02:37:47;18.40;99.90
50947;DHT22;36955;47.416;7.716;2022-07-30T02:40:16;18.30;99.90
50947;DHT22;36955;47.416;7.716;2022-07-30T02:42:46;18.30;99.90
50947;DHT22;36955;47.416;7.716;2022-07-30T02:45:15;18.20;99.90
50947;DHT22;36955;47.416;7.716;2022-07-30T02:47:42;18.20;99.90
50947;DHT22;36955;47.416;7.716;2022-07-30T02:50:10;18.10;99.90
50947;DHT22;36955;47.416;7.716;2022-07-30T02:52:38;18.10;99.90
50947;DHT22;36955;47.416;7.716;2022-07-30T02:55:07;18.00;99.90
50947;DHT22;36955;47.416;7.716;2022-07-30T02:57:35;18.00;99.90
50947;DHT22;36955;47.416;7.716;2022-07-30T03:00:03;17.90;99.90
50947;DHT22;36955;47.416;7.716;2022-07-30T03:02:32;17.90;99.90
50947;DHT22;36955;47.416;7.716;2022-07-30T03:05:00;17.80;99.90
50947;DHT22;36955;47.416;7.716;2022-07-30T03:07:27;17.70;99.90
50947;DHT22;36955;47.416;7.716;2022-07-30T03:09:56;17.70;99.90
50947;DHT22;36955;47.416;7.716;2022-07-30T03:12:23;17.60;99.90
50947;DHT22;36955;47.416;7.716;2022-07-30T03:14:50;17.60;99.90
50947;DHT22;36955;47.416;7.716;2022-07-30T03:17:17;17.50;99.90
50947;DHT22;36955;47.416;7.716;2022-07-30T03:19:45;17.40;99.90
50947;DHT22;36955;47.416;7.716;2022-07-30T03:22:13;17.40;99.90
50947;DHT22;36955;47.416;7.716;2022-07-30T03:24:42;17.40;99.90
50947;DHT22;36955;47.416;7.716;2022-07-30T03:27:09;17.40;99.90
50947;DHT22;36955;47.416;7.716;2022-07-30T03:29:36;17.30;99.90
50947;DHT22;36955;47.416;7.716;2022-07-30T03:32:03;17.30;99.90
50947;DHT22;36955;47.416;7.716;2022-07-30T03:34:32;17.30;99.90
50947;DHT22;36955;47.416;7.716;2022-07-30T03:37:00;17.40;99.90
50947;DHT22;36955;47.416;7.716;2022-07-30T03:39:27;17.40;99.90
50947;DHT22;36955;47.416;7.716;2022-07-30T03:41:53;17.50;99.90
50947;DHT22;36955;47.416;7.716;2022-07-30T03:44:21;17.40;99.90
50947;DHT22;36955;47.416;7.716;2022-07-30T03:46:48;17.30;99.90
50947;DHT22;36955;47.416;7.716;2022-07-30T03:49:16;17.30;99.90
50947;DHT22;36955;47.416;7.716;2022-07-30T03:51:43;17.20;99.90
50947;DHT22;36955;47.416;7.716;2022-07-30T03:54:10;17.10;99.90
50947;DHT22;36955;47.416;7.716;2022-07-30T03:56:37;17.00;99.90
50947;DHT22;36955;47.416;7.716;2022-07-30T03:59:04;16.90;99.90
50947;DHT22;36955;47.416;7.716;2022-07-30T04:01:30;16.90;99.90
50947;DHT22;36955;47.416;7.716;2022-07-30T04:04:06;17.00;99.90
50947;DHT22;36955;47.416;7.716;2022-07-30T04:06:34;17.00;99.90
50947;DHT22;36955;47.416;7.716;2022-07-30T04:09:00;17.00;99.90
50947;DHT22;36955;47.416;7.716;2022-07-30T04:11:26;17.10;99.90
50947;DHT22;36955;47.416;7.716;2022-07-30T04:13:52;17.20;99.90
50947;DHT22;36955;47.416;7.716;2022-07-30T04:16:24;17.20;99.90
50947;DHT22;36955;47.416;7.716;2022-07-30T04:18:53;17.40;99.90
50947;DHT22;36955;47.416;7.716;2022-07-30T04:21:22;17.40;99.90
50947;DHT22;36955;47.416;7.716;2022-07-30T04:23:50;17.50;99.90
50947;DHT22;36955;47.416;7.716;2022-07-30T04:26:17;17.50;99.90
50947;DHT22;36955;47.416;7.716;2022-07-30T04:28:45;17.50;99.90
50947;DHT22;36955;47.416;7.716;2022-07-30T04:31:11;17.60;99.90
50947;DHT22;36955;47.416;7.716;2022-07-30T04:33:37;17.60;99.90
50947;DHT22;36955;47.416;7.716;2022-07-30T04:36:07;17.60;99.90
50947;DHT22;36955;47.416;7.716;2022-07-30T04:38:33;17.60;99.90
50947;DHT22;36955;47.416;7.716;2022-07-30T04:40:59;17.60;99.90
50947;DHT22;36955;47.416;7.716;2022-07-30T04:43:25;17.60;99.90
50947;DHT22;36955;47.416;7.716;2022-07-30T04:45:52;17.60;99.90
50947;DHT22;36955;47.416;7.716;2022-07-30T04:48:18;17.70;99.90
50947;DHT22;36955;47.416;7.716;2022-07-30T04:50:47;17.70;99.90
50947;DHT22;36955;47.416;7.716;2022-07-30T04:53:14;17.60;99.90
50947;DHT22;36955;47.416;7.716;2022-07-30T04:55:41;17.60;99.90
50947;DHT22;36955;47.416;7.716;2022-07-30T04:58:10;17.60;99.90
50947;DHT22;36955;47.416;7.716;2022-07-30T05:00:37;17.60;99.90
50947;DHT22;36955;47.416;7.716;2022-07-30T05:03:06;17.70;99.90
50947;DHT22;36955;47.416;7.716;2022-07-30T05:05:34;17.80;99.90
50947;DHT22;36955;47.416;7.716;2022-07-30T05:08:00;17.80;99.90
50947;DHT22;36955;47.416;7.716;2022-07-30T05:10:27;17.90;99.90
50947;DHT22;36955;47.416;7.716;2022-07-30T05:12:53;17.90;99.90
50947;DHT22;36955;47.416;7.716;2022-07-30T05:15:19;17.90;99.90
50947;DHT22;36955;47.416;7.716;2022-07-30T05:17:46;18.00;99.90
50947;DHT22;36955;47.416;7.716;2022-07-30T05:20:12;18.00;99.90
50947;DHT22;36955;47.416;7.716;2022-07-30T05:22:38;18.10;99.90
50947;DHT22;36955;47.416;7.716;2022-07-30T05:25:04;18.20;99.90
50947;DHT22;36955;47.416;7.716;2022-07-30T05:27:30;18.20;99.90
50947;DHT22;36955;47.416;7.716;2022-07-30T05:29:56;18.30;99.90
50947;DHT22;36955;47.416;7.716;2022-07-30T05:32:22;18.40;99.90
50947;DHT22;36955;47.416;7.716;2022-07-30T05:34:48;18.50;99.90
50947;DHT22;36955;47.416;7.716;2022-07-30T05:37:15;18.60;99.90
50947;DHT22;36955;47.416;7.716;2022-07-30T05:39:41;18.70;99.90
50947;DHT22;36955;47.416;7.716;2022-07-30T05:42:07;18.80;99.90
50947;DHT22;36955;47.416;7.716;2022-07-30T05:44:33;18.90;99.90
50947;DHT22;36955;47.416;7.716;2022-07-30T05:46:59;19.00;99.90
50947;DHT22;36955;47.416;7.716;2022-07-30T05:49:25;19.10;99.90
50947;DHT22;36955;47.416;7.716;2022-07-30T05:51:51;19.10;99.90
50947;DHT22;36955;47.416;7.716;2022-07-30T05:54:17;19.10;99.90
50947;DHT22;36955;47.416;7.716;2022-07-30T05:56:43;19.20;99.90
50947;DHT22;36955;47.416;7.716;2022-07-30T05:59:09;19.30;99.90
50947;DHT22;36955;47.416;7.716;2022-07-30T06:01:35;19.40;99.90
50947;DHT22;36955;47.416;7.716;2022-07-30T06:04:01;19.40;99.90
50947;DHT22;36955;47.416;7.716;2022-07-30T06:06:27;19.40;99.90
50947;DHT22;36955;47.416;7.716;2022-07-30T06:08:55;19.50;99.90
50947;DHT22;36955;47.416;7.716;2022-07-30T06:11:21;19.50;99.90
50947;DHT22;36955;47.416;7.716;2022-07-30T06:13:47;19.50;99.90
50947;DHT22;36955;47.416;7.716;2022-07-30T06:16:13;19.60;99.90
50947;DHT22;36955;47.416;7.716;2022-07-30T06:18:39;19.60;99.90
50947;DHT22;36955;47.416;7.716;2022-07-30T06:21:05;19.60;99.90
50947;DHT22;36955;47.416;7.716;2022-07-30T06:23:31;19.70;99.90
50947;DHT22;36955;47.416;7.716;2022-07-30T06:25:57;19.70;99.90
50947;DHT22;36955;47.416;7.716;2022-07-30T06:28:23;19.80;99.90
50947;DHT22;36955;47.416;7.716;2022-07-30T06:30:49;19.90;99.90
50947;DHT22;36955;47.416;7.716;2022-07-30T06:33:15;19.90;99.90
50947;DHT22;36955;47.416;7.716;2022-07-30T06:35:41;20.00;99.90
50947;DHT22;36955;47.416;7.716;2022-07-30T06:38:07;20.00;99.90
50947;DHT22;36955;47.416;7.716;2022-07-30T06:40:33;20.00;99.90
50947;DHT22;36955;47.416;7.716;2022-07-30T06:42:59;20.10;99.90
50947;DHT22;36955;47.416;7.716;2022-07-30T06:45:25;20.20;99.90
50947;DHT22;36955;47.416;7.716;2022-07-30T06:47:56;20.30;99.90
50947;DHT22;36955;47.416;7.716;2022-07-30T06:50:22;20.40;99.90
50947;DHT22;36955;47.416;7.716;2022-07-30T06:52:48;20.50;99.90
50947;DHT22;36955;47.416;7.716;2022-07-30T06:55:14;20.50;99.90
50947;DHT22;36955;47.416;7.716;2022-07-30T06:57:40;20.50;99.90
50947;DHT22;36955;47.416;7.716;2022-07-30T07:00:07;20.50;99.90
50947;DHT22;36955;47.416;7.716;2022-07-30T07:02:33;20.50;99.90
50947;DHT22;36955;47.416;7.716;2022-07-30T07:04:59;20.50;99.90
50947;DHT22;36955;47.416;7.716;2022-07-30T07:07:25;20.50;99.90
50947;DHT22;36955;47.416;7.716;2022-07-30T07:09:51;20.60;99.90
50947;DHT22;36955;47.416;7.716;2022-07-30T07:12:17;20.60;99.90
50947;DHT22;36955;47.416;7.716;2022-07-30T07:14:43;20.60;99.90
50947;DHT22;36955;47.416;7.716;2022-07-30T07:17:09;20.70;99.90
50947;DHT22;36955;47.416;7.716;2022-07-30T07:19:35;20.80;99.90
50947;DHT22;36955;47.416;7.716;2022-07-30T07:22:01;20.80;99.90
50947;DHT22;36955;47.416;7.716;2022-07-30T07:24:28;20.80;99.90
50947;DHT22;36955;47.416;7.716;2022-07-30T07:26:54;20.90;99.90
50947;DHT22;36955;47.416;7.716;2022-07-30T07:29:20;20.90;99.90
50947;DHT22;36955;47.416;7.716;2022-07-30T07:31:46;20.80;99.90
50947;DHT22;36955;47.416;7.716;2022-07-30T07:34:12;20.90;99.90
50947;DHT22;36955;47.416;7.716;2022-07-30T07:36:38;21.00;99.90
50947;DHT22;36955;47.416;7.716;2022-07-30T07:39:04;21.00;99.90
50947;DHT22;36955;47.416;7.716;2022-07-30T07:41:30;21.10;99.90
50947;DHT22;36955;47.416;7.716;2022-07-30T07:43:56;21.20;99.90
50947;DHT22;36955;47.416;7.716;2022-07-30T07:46:22;21.30;99.90
50947;DHT22;36955;47.416;7.716;2022-07-30T07:48:48;21.50;99.90
50947;DHT22;36955;47.416;7.716;2022-07-30T07:51:14;21.60;99.90
50947;DHT22;36955;47.416;7.716;2022-07-30T07:53:40;21.60;99.90
50947;DHT22;36955;47.416;7.716;2022-07-30T07:56:06;21.80;99.90
50947;DHT22;36955;47.416;7.716;2022-07-30T07:58:33;21.90;99.90
50947;DHT22;36955;47.416;7.716;2022-07-30T08:00:59;22.00;99.90
50947;DHT22;36955;47.416;7.716;2022-07-30T08:03:25;22.20;99.90
50947;DHT22;36955;47.416;7.716;2022-07-30T08:05:51;22.30;99.90
50947;DHT22;36955;47.416;7.716;2022-07-30T08:08:17;22.20;99.90
50947;DHT22;36955;47.416;7.716;2022-07-30T08:10:43;22.10;99.90
50947;DHT22;36955;47.416;7.716;2022-07-30T08:13:09;22.00;99.90
50947;DHT22;36955;47.416;7.716;2022-07-30T08:15:35;22.00;99.90
50947;DHT22;36955;47.416;7.716;2022-07-30T08:18:01;22.10;99.90
50947;DHT22;36955;47.416;7.716;2022-07-30T08:20:27;22.40;99.90
50947;DHT22;36955;47.416;7.716;2022-07-30T08:22:53;22.60;99.90
50947;DHT22;36955;47.416;7.716;2022-07-30T08:25:19;22.60;99.90
50947;DHT22;36955;47.416;7.716;2022-07-30T08:27:45;22.70;99.90
50947;DHT22;36955;47.416;7.716;2022-07-30T08:30:11;22.60;99.90
50947;DHT22;36955;47.416;7.716;2022-07-30T08:32:38;22.70;99.90
50947;DHT22;36955;47.416;7.716;2022-07-30T08:35:05;22.70;99.90
50947;DHT22;36955;47.416;7.716;2022-07-30T08:37:31;22.80;99.90
50947;DHT22;36955;47.416;7.716;2022-07-30T08:39:57;22.90;99.90
50947;DHT22;36955;47.416;7.716;2022-07-30T08:42:23;22.90;99.90
50947;DHT22;36955;47.416;7.716;2022-07-30T08:44:51;22.90;99.90
50947;DHT22;36955;47.416;7.716;2022-07-30T08:47:20;22.80;99.90
50947;DHT22;36955;47.416;7.716;2022-07-30T08:49:48;22.80;99.90
50947;DHT22;36955;47.416;7.716;2022-07-30T08:52:14;22.90;99.90
50947;DHT22;36955;47.416;7.716;2022-07-30T08:54:41;22.90;99.90
50947;DHT22;36955;47.416;7.716;2022-07-30T08:57:07;23.00;99.90
50947;DHT22;36955;47.416;7.716;2022-07-30T08:59:33;23.00;99.90
50947;DHT22;36955;47.416;7.716;2022-07-30T09:01:59;23.00;99.90
50947;DHT22;36955;47.416;7.716;2022-07-30T09:04:25;23.00;99.50
50947;DHT22;36955;47.416;7.716;2022-07-30T09:06:51;23.00;99.50
50947;DHT22;36955;47.416;7.716;2022-07-30T09:09:17;23.10;99.50
50947;DHT22;36955;47.416;7.716;2022-07-30T09:11:43;23.10;99.90
50947;DHT22;36955;47.416;7.716;2022-07-30T09:14:11;23.10;99.50
50947;DHT22;36955;47.416;7.716;2022-07-30T09:16:39;23.20;99.60
50947;DHT22;36955;47.416;7.716;2022-07-30T09:19:16;23.20;99.40
50947;DHT22;36955;47.416;7.716;2022-07-30T09:21:54;23.10;99.90
50947;DHT22;36955;47.416;7.716;2022-07-30T09:24:20;23.10;99.90
50947;DHT22;36955;47.416;7.716;2022-07-30T09:29:28;23.10;99.90
50947;DHT22;36955;47.416;7.716;2022-07-30T09:31:59;23.00;99.90
50947;DHT22;36955;47.416;7.716;2022-07-30T09:34:36;23.00;99.90
50947;DHT22;36955;47.416;7.716;2022-07-30T09:39:38;23.20;98.90
50947;DHT22;36955;47.416;7.716;2022-07-30T09:42:23;23.30;98.80
50947;DHT22;36955;47.416;7.716;2022-07-30T09:44:49;23.30;97.70
50947;DHT22;36955;47.416;7.716;2022-07-30T09:47:35;23.30;98.90
50947;DHT22;36955;47.416;7.716;2022-07-30T09:50:03;23.30;98.80
50947;DHT22;36955;47.416;7.716;2022-07-30T09:52:29;23.30;99.30
50947;DHT22;36955;47.416;7.716;2022-07-30T09:54:55;23.50;99.40
50947;DHT22;36955;47.416;7.716;2022-07-30T09:57:21;23.50;98.10
50947;DHT22;36955;47.416;7.716;2022-07-30T09:59:47;23.40;99.20
50947;DHT22;36955;47.416;7.716;2022-07-30T10:02:13;23.40;99.90
50947;DHT22;36955;47.416;7.716;2022-07-30T10:04:40;23.40;99.90
50947;DHT22;36955;47.416;7.716;2022-07-30T10:07:16;23.50;99.90
50947;DHT22;36955;47.416;7.716;2022-07-30T10:09:42;23.50;98.20
50947;DHT22;36955;47.416;7.716;2022-07-30T10:12:09;23.50;99.70
50947;DHT22;36955;47.416;7.716;2022-07-30T10:14:36;23.60;99.10
50947;DHT22;36955;47.416;7.716;2022-07-30T10:17:03;23.60;98.90
50947;DHT22;36955;47.416;7.716;2022-07-30T10:19:31;23.70;98.90
50947;DHT22;36955;47.416;7.716;2022-07-30T10:21:58;23.70;98.80
50947;DHT22;36955;47.416;7.716;2022-07-30T10:24:25;23.70;99.90
50947;DHT22;36955;47.416;7.716;2022-07-30T10:26:52;23.90;98.60
50947;DHT22;36955;47.416;7.716;2022-07-30T10:29:19;23.90;98.60
50947;DHT22;36955;47.416;7.716;2022-07-30T10:31:46;23.90;98.70
50947;DHT22;36955;47.416;7.716;2022-07-30T10:34:14;24.00;99.90
50947;DHT22;36955;47.416;7.716;2022-07-30T10:36:43;24.10;99.30
50947;DHT22;36955;47.416;7.716;2022-07-30T10:39:16;24.30;99.00
50947;DHT22;36955;47.416;7.716;2022-07-30T10:47:37;24.00;98.70
50947;DHT22;36955;47.416;7.716;2022-07-30T10:52:55;24.00;98.80
50947;DHT22;36955;47.416;7.716;2022-07-30T10:55:26;23.90;98.70
50947;DHT22;36955;47.416;7.716;2022-07-30T10:58:03;23.90;98.40
50947;DHT22;36955;47.416;7.716;2022-07-30T11:00:32;24.00;99.00
50947;DHT22;36955;47.416;7.716;2022-07-30T11:03:15;24.10;99.90
50947;DHT22;36955;47.416;7.716;2022-07-30T11:05:43;24.20;98.70
50947;DHT22;36955;47.416;7.716;2022-07-30T11:10:56;24.10;98.50
50947;DHT22;36955;47.416;7.716;2022-07-30T11:16:13;24.10;98.80
50947;DHT22;36955;47.416;7.716;2022-07-30T11:19:13;24.00;99.90
50947;DHT22;36955;47.416;7.716;2022-07-30T11:21:39;23.90;99.90
50947;DHT22;36955;47.416;7.716;2022-07-30T11:24:05;24.00;99.90
50947;DHT22;36955;47.416;7.716;2022-07-30T11:29:04;24.40;99.90
50947;DHT22;36955;47.416;7.716;2022-07-30T11:31:35;24.70;98.60
50947;DHT22;36955;47.416;7.716;2022-07-30T11:37:15;25.00;98.20
50947;DHT22;36955;47.416;7.716;2022-07-30T11:42:26;25.00;98.90
50947;DHT22;36955;47.416;7.716;2022-07-30T11:47:51;25.00;97.60
50947;DHT22;36955;47.416;7.716;2022-07-30T11:50:30;25.00;97.70
50947;DHT22;36955;47.416;7.716;2022-07-30T11:53:04;24.90;96.70
50947;DHT22;36955;47.416;7.716;2022-07-30T11:55:34;24.70;97.50
50947;DHT22;36955;47.416;7.716;2022-07-30T11:58:02;24.60;97.00
50947;DHT22;36955;47.416;7.716;2022-07-30T12:00:37;24.60;97.20
50947;DHT22;36955;47.416;7.716;2022-07-30T12:03:11;24.70;97.60
50947;DHT22;36955;47.416;7.716;2022-07-30T12:05:38;24.70;97.70
50947;DHT22;36955;47.416;7.716;2022-07-30T12:08:05;24.70;97.80
50947;DHT22;36955;47.416;7.716;2022-07-30T12:10:31;24.80;98.40
50947;DHT22;36955;47.416;7.716;2022-07-30T12:13:11;24.90;97.70
50947;DHT22;36955;47.416;7.716;2022-07-30T12:15:40;25.00;98.10
50947;DHT22;36955;47.416;7.716;2022-07-30T12:18:07;25.00;99.20
50947;DHT22;36955;47.416;7.716;2022-07-30T12:20:33;25.00;97.90
50947;DHT22;36955;47.416;7.716;2022-07-30T12:22:59;24.80;98.50
50947;DHT22;36955;47.416;7.716;2022-07-30T12:25:25;24.80;97.70
50947;DHT22;36955;47.416;7.716;2022-07-30T12:27:52;24.70;99.20
50947;DHT22;36955;47.416;7.716;2022-07-30T12:30:18;24.70;97.90
50947;DHT22;36955;47.416;7.716;2022-07-30T12:32:45;24.70;99.90
50947;DHT22;36955;47.416;7.716;2022-07-30T12:35:11;24.70;98.90
50947;DHT22;36955;47.416;7.716;2022-07-30T12:37:38;24.80;98.30
50947;DHT22;36955;47.416;7.716;2022-07-30T12:40:09;24.80;97.30
50947;DHT22;36955;47.416;7.716;2022-07-30T12:42:36;24.90;97.60
50947;DHT22;36955;47.416;7.716;2022-07-30T12:45:03;24.80;97.10
50947;DHT22;36955;47.416;7.716;2022-07-30T12:47:30;24.80;97.90
50947;DHT22;36955;47.416;7.716;2022-07-30T12:49:58;24.80;97.10
50947;DHT22;36955;47.416;7.716;2022-07-30T12:52:31;24.80;97.20
50947;DHT22;36955;47.416;7.716;2022-07-30T12:55:11;25.00;98.20
50947;DHT22;36955;47.416;7.716;2022-07-30T12:58:00;25.10;98.80
50947;DHT22;36955;47.416;7.716;2022-07-30T13:00:45;25.40;98.00
50947;DHT22;36955;47.416;7.716;2022-07-30T13:03:25;25.50;97.00
50947;DHT22;36955;47.416;7.716;2022-07-30T13:05:53;25.50;99.60
50947;DHT22;36955;47.416;7.716;2022-07-30T13:08:19;25.50;97.40
50947;DHT22;36955;47.416;7.716;2022-07-30T13:11:12;25.50;97.00
50947;DHT22;36955;47.416;7.716;2022-07-30T13:13:38;25.40;96.90
50947;DHT22;36955;47.416;7.716;2022-07-30T13:16:05;25.30;96.50
50947;DHT22;36955;47.416;7.716;2022-07-30T13:18:33;25.20;97.70
50947;DHT22;36955;47.416;7.716;2022-07-30T13:21:01;25.00;97.10
50947;DHT22;36955;47.416;7.716;2022-07-30T13:23:28;24.90;98.00
50947;DHT22;36955;47.416;7.716;2022-07-30T13:25:54;24.90;98.30
50947;DHT22;36955;47.416;7.716;2022-07-30T13:28:21;24.90;97.50
50947;DHT22;36955;47.416;7.716;2022-07-30T13:30:47;24.90;98.90
50947;DHT22;36955;47.416;7.716;2022-07-30T13:33:14;24.80;97.70
50947;DHT22;36955;47.416;7.716;2022-07-30T13:35:40;24.80;97.70
50947;DHT22;36955;47.416;7.716;2022-07-30T13:38:06;25.00;98.00
50947;DHT22;36955;47.416;7.716;2022-07-30T13:40:33;25.00;97.80
50947;DHT22;36955;47.416;7.716;2022-07-30T13:43:00;25.20;98.10
50947;DHT22;36955;47.416;7.716;2022-07-30T13:45:26;25.20;98.50
50947;DHT22;36955;47.416;7.716;2022-07-30T13:47:52;25.30;97.60
50947;DHT22;36955;47.416;7.716;2022-07-30T13:50:19;25.30;99.90
50947;DHT22;36955;47.416;7.716;2022-07-30T13:52:45;25.30;98.70
50947;DHT22;36955;47.416;7.716;2022-07-30T13:55:11;25.30;99.60
50947;DHT22;36955;47.416;7.716;2022-07-30T13:57:37;25.50;97.30
50947;DHT22;36955;47.416;7.716;2022-07-30T14:00:05;25.60;99.30
50947;DHT22;36955;47.416;7.716;2022-07-30T14:02:32;26.00;98.00
50947;DHT22;36955;47.416;7.716;2022-07-30T14:04:58;26.60;97.40
50947;DHT22;36955;47.416;7.716;2022-07-30T14:07:25;27.00;96.80
50947;DHT22;36955;47.416;7.716;2022-07-30T14:09:51;27.10;94.90
50947;DHT22;36955;47.416;7.716;2022-07-30T14:12:17;27.00;96.00
50947;DHT22;36955;47.416;7.716;2022-07-30T14:14:43;27.00;95.10
50947;DHT22;36955;47.416;7.716;2022-07-30T14:17:09;26.70;96.00
50947;DHT22;36955;47.416;7.716;2022-07-30T14:19:35;26.50;95.60
50947;DHT22;36955;47.416;7.716;2022-07-30T14:22:01;26.30;95.30
50947;DHT22;36955;47.416;7.716;2022-07-30T14:24:27;26.10;95.20
50947;DHT22;36955;47.416;7.716;2022-07-30T14:26:53;25.90;95.80
50947;DHT22;36955;47.416;7.716;2022-07-30T14:29:19;25.60;96.10
50947;DHT22;36955;47.416;7.716;2022-07-30T14:31:45;25.40;97.10
50947;DHT22;36955;47.416;7.716;2022-07-30T14:34:11;25.30;96.40
50947;DHT22;36955;47.416;7.716;2022-07-30T14:36:37;25.20;96.50
50947;DHT22;36955;47.416;7.716;2022-07-30T14:39:04;25.20;96.80
50947;DHT22;36955;47.416;7.716;2022-07-30T14:41:30;25.20;97.00
50947;DHT22;36955;47.416;7.716;2022-07-30T14:43:57;25.20;96.50
50947;DHT22;36955;47.416;7.716;2022-07-30T14:46:23;25.10;98.30
50947;DHT22;36955;47.416;7.716;2022-07-30T14:48:49;25.10;96.60
50947;DHT22;36955;47.416;7.716;2022-07-30T14:51:15;25.00;96.70
50947;DHT22;36955;47.416;7.716;2022-07-30T14:53:41;25.00;96.80
50947;DHT22;36955;47.416;7.716;2022-07-30T14:56:07;24.90;97.80
50947;DHT22;36955;47.416;7.716;2022-07-30T14:58:33;25.00;97.80
50947;DHT22;36955;47.416;7.716;2022-07-30T15:00:59;25.00;96.60
50947;DHT22;36955;47.416;7.716;2022-07-30T15:03:25;25.10;96.60
50947;DHT22;36955;47.416;7.716;2022-07-30T15:05:51;25.30;96.30
50947;DHT22;36955;47.416;7.716;2022-07-30T15:08:18;25.70;96.30
50947;DHT22;36955;47.416;7.716;2022-07-30T15:10:44;26.20;97.10
50947;DHT22;36955;47.416;7.716;2022-07-30T15:13:10;26.70;96.80
50947;DHT22;36955;47.416;7.716;2022-07-30T15:15:36;27.20;94.80
50947;DHT22;36955;47.416;7.716;2022-07-30T15:18:02;27.60;95.10
50947;DHT22;36955;47.416;7.716;2022-07-30T15:20:28;27.80;93.90
50947;DHT22;36955;47.416;7.716;2022-07-30T15:22:54;28.10;94.90
50947;DHT22;36955;47.416;7.716;2022-07-30T15:25:20;28.40;93.80
50947;DHT22;36955;47.416;7.716;2022-07-30T15:27:46;28.70;94.00
50947;DHT22;36955;47.416;7.716;2022-07-30T15:30:12;28.80;95.40
50947;DHT22;36955;47.416;7.716;2022-07-30T15:32:38;28.90;95.30
50947;DHT22;36955;47.416;7.716;2022-07-30T15:35:05;28.70;94.30
50947;DHT22;36955;47.416;7.716;2022-07-30T15:37:31;28.80;95.20
50947;DHT22;36955;47.416;7.716;2022-07-30T15:39:57;28.60;92.80
50947;DHT22;36955;47.416;7.716;2022-07-30T15:42:23;28.60;94.10
50947;DHT22;36955;47.416;7.716;2022-07-30T15:44:49;28.70;94.40
50947;DHT22;36955;47.416;7.716;2022-07-30T15:47:15;28.70;95.70
50947;DHT22;36955;47.416;7.716;2022-07-30T15:49:41;28.90;92.90
50947;DHT22;36955;47.416;7.716;2022-07-30T15:52:07;29.00;94.60
50947;DHT22;36955;47.416;7.716;2022-07-30T15:54:33;29.20;92.60
50947;DHT22;36955;47.416;7.716;2022-07-30T15:56:59;29.20;92.60
50947;DHT22;36955;47.416;7.716;2022-07-30T15:59:25;29.20;91.80
50947;DHT22;36955;47.416;7.716;2022-07-30T16:01:51;29.10;91.40
50947;DHT22;36955;47.416;7.716;2022-07-30T16:04:18;28.80;92.10
50947;DHT22;36955;47.416;7.716;2022-07-30T16:06:44;28.60;92.70
50947;DHT22;36955;47.416;7.716;2022-07-30T16:09:10;28.40;92.80